Latest Weather Observations for Gatton

IDQ60801

Issued at 9:13 pm EST Saturday 9 May 2026 (issued every 10 minutes, with the page automatically refreshed every 10 minutes)

About weather observations | Map of weather stations | Latest weather observations for QLD | Other Formats
Station Details ID: 040082 Name: UNIVERSITY OF QUEENSLAND GATTON Lat: -27.54 Lon: 152.34 Height: 89.0 m
Data from the previous 72 hours. | See also: Recent months at Gatton
Date/Time
EST
Temp
°C
App
Temp
°C
Dew
Point
°C
Rel
Hum
%
Delta-T
°C
Wind Press
QNH
hPa
Press
MSL
hPa
Rain since
9am
mm
Dir  Spd
km/h
Gust
km/h
Spd
kts
Gust
kts
09/09:00pm 12.2 11.0 7.9 75 2.1 SSE 4 6 2 3 - - 0.0
09/08:30pm 12.1 11.7 8.2 77 1.9 CALM 0 0 0 0 - - 0.0
09/08:00pm 12.8 12.3 7.7 71 2.5 CALM 0 0 0 0 - - 0.0
09/07:30pm 14.1 14.0 9.3 73 2.5 CALM 0 2 0 1 - - 0.0
09/07:00pm 15.6 15.5 9.5 67 3.2 CALM 0 0 0 0 - - 0.0
09/06:30pm 17.0 16.0 8.9 59 4.2 NE 4 6 2 3 - - 0.0
09/06:00pm 18.2 16.8 8.7 54 4.9 NE 6 7 3 4 - - 0.0
09/05:30pm 20.0 18.5 9.0 49 5.8 NE 7 9 4 5 - - 0.0
09/05:00pm 22.1 20.3 9.3 44 6.9 NE 9 15 5 8 - - 0.0
09/04:30pm 23.6 21.8 8.1 37 8.2 ENE 7 11 4 6 - - 0.0
09/04:00pm 24.1 22.0 8.1 36 8.5 ENE 9 17 5 9 - - 0.0
09/03:30pm 24.5 22.1 8.5 36 8.6 ENE 11 17 6 9 - - 0.0
09/03:00pm 24.6 21.7 8.1 35 8.8 NE 13 19 7 10 - - 0.0
09/02:30pm 25.0 22.7 8.9 36 8.7 NE 11 19 6 10 - - 0.0
09/02:00pm 24.6 22.1 8.1 35 8.8 NNE 11 19 6 10 - - 0.0
09/01:30pm 24.6 22.2 8.5 36 8.7 N 11 19 6 10 - - 0.0
09/01:00pm 24.5 22.1 8.5 36 8.6 E 11 19 6 10 - - 0.0
09/12:30pm 24.3 22.7 8.7 37 8.4 ENE 7 19 4 10 - - 0.0
09/12:00pm 23.4 21.4 8.7 39 7.9 NE 9 17 5 9 - - 0.0
09/11:30am 22.8 20.4 8.5 40 7.6 NE 11 20 6 11 - - 0.0
09/11:00am 22.7 21.0 8.4 40 7.6 NE 7 13 4 7 - - 0.0
09/10:30am 22.1 20.5 7.9 40 7.4 E 6 11 3 6 - - 0.0
09/10:00am 20.8 19.1 6.0 38 7.4 SE 4 9 2 5 - - 0.0
09/09:30am 18.1 15.8 5.0 42 6.3 WSW 6 7 3 4 - - 0.0
09/09:00am 16.0 13.3 5.6 50 5.0 W 9 11 5 6 - - 0.0
09/08:30am 13.6 10.5 5.7 59 3.7 W 11 13 6 7 - - 0.0
09/08:00am 11.1 7.8 4.8 65 2.9 WSW 11 15 6 8 - - 0.0
09/07:30am 9.9 6.7 4.9 71 2.3 W 11 15 6 8 - - 0.0
09/07:00am 8.5 6.0 4.5 76 1.8 W 7 11 4 6 - - 0.0
09/06:30am 7.7 5.0 3.9 77 1.6 W 7 11 4 6 - - 0.0
09/06:00am 8.1 5.1 3.9 75 1.8 WSW 9 13 5 7 - - 0.0
09/05:30am 7.5 5.7 3.7 77 1.6 W 2 9 1 5 - - 0.0
09/05:00am 8.2 6.9 4.0 75 1.8 CALM 0 2 0 1 - - 0.0
09/04:30am 8.9 7.1 3.7 70 2.3 WSW 2 7 1 4 - - 0.0
09/04:00am 9.2 7.0 3.6 68 2.4 WSW 4 6 2 3 - - 0.0
09/03:30am 9.4 6.8 4.0 69 2.4 WSW 7 9 4 5 - - 0.0
09/03:00am 10.1 7.0 3.6 64 2.9 WSW 9 11 5 6 - - 0.0
09/02:30am 11.2 8.1 3.7 60 3.3 W 9 13 5 7 - - 0.0
09/02:00am 11.3 7.7 3.1 57 3.6 WSW 11 13 6 7 - - 0.0
09/01:30am 12.0 8.5 3.3 55 3.9 W 11 13 6 7 - - 0.0
09/01:00am 12.7 9.2 3.4 53 4.2 W 11 15 6 8 - - 0.0
09/12:30am 13.1 9.2 3.2 51 4.4 W 13 17 7 9 - - 0.0
09/12:00am 13.8 9.1 3.3 49 4.7 W 17 24 9 13 - - 0.0
 
Date/Time
EST
Temp
°C
App
Temp
°C
Dew
Point
°C
Rel
Hum
%
Delta-T
°C
Wind Press
QNH
hPa
Press
MSL
hPa
Rain since
9am
mm
Dir  Spd
km/h
Gust
km/h
Spd
kts
Gust
kts
08/11:30pm 14.1 9.4 3.3 48 4.9 W 17 22 9 12 - - 0.0
08/11:00pm 14.4 9.7 3.2 47 5.1 W 17 24 9 13 - - 0.0
08/10:30pm 14.8 10.1 3.0 45 5.3 W 17 24 9 13 - - 0.0
08/10:00pm 15.4 11.0 2.6 42 5.8 W 15 24 8 13 - - 0.0
08/09:30pm 15.2 10.7 2.4 42 5.7 W 15 22 8 12 - - 0.0
08/09:00pm 14.7 10.9 1.9 42 5.6 WSW 11 17 6 9 - - 0.0
08/08:30pm 15.7 11.1 1.8 39 6.2 W 15 24 8 13 - - 0.0
08/08:00pm 15.7 12.8 1.4 38 6.3 W 6 9 3 5 - - 0.0
08/07:30pm 16.9 11.5 1.4 35 6.9 W 19 24 10 13 - - 0.0
08/07:00pm 17.1 13.6 1.1 34 7.1 W 9 15 5 8 - - 0.0
08/06:30pm 17.7 13.0 1.2 33 7.4 W 15 19 8 10 - - 0.0
08/06:00pm 18.8 13.4 1.3 31 7.9 W 19 22 10 12 - - 0.0
08/05:30pm 19.4 13.8 1.4 30 8.2 W 20 26 11 14 - - 0.0
08/05:00pm 20.8 15.3 1.6 28 8.8 W 20 28 11 15 - - 0.0
08/04:30pm 22.1 16.8 1.7 26 9.5 W 19 26 10 14 - - 0.0
08/04:00pm 23.0 17.7 1.9 25 9.9 W 19 30 10 16 - - 0.0
08/03:30pm 23.3 18.5 0.4 22 10.5 WNW 15 24 8 13 - - 0.0
08/03:00pm 23.7 18.6 0.7 22 10.7 W 17 22 9 12 - - 0.0
08/02:30pm 23.3 18.3 -0.9 20 10.8 WNW 15 24 8 13 - - 0.0
08/02:00pm 23.1 18.6 -0.4 21 10.6 WNW 13 22 7 12 - - 0.0
08/01:30pm 22.6 18.1 -0.2 22 10.3 W 13 24 7 13 - - 0.0
08/01:00pm 21.8 16.6 -0.2 23 9.9 WSW 17 24 9 13 - - 0.0
08/12:30pm 21.0 15.4 0.2 25 9.3 W 19 28 10 15 - - 0.0
08/12:00pm 19.7 14.3 -1.4 24 9.1 W 17 28 9 15 - - 0.0
08/11:30am 19.1 13.1 -1.9 24 8.9 W 20 26 11 14 - - 0.0
08/11:00am 18.5 13.2 -0.8 27 8.3 W 17 24 9 13 - - 0.0
08/10:30am 17.4 11.4 -1.3 28 7.9 W 20 28 11 15 - - 0.0
08/10:00am 16.5 11.1 -1.1 30 7.4 W 17 28 9 15 - - 0.0
08/09:30am 15.4 9.4 -1.6 31 7.0 W 20 28 11 15 - - 0.0
08/09:00am 13.9 7.7 -0.5 37 6.0 W 22 28 12 15 - - 0.0
08/08:30am 12.7 6.7 -1.6 37 5.7 W 20 30 11 16 - - 0.0
08/08:00am 11.3 5.4 -1.1 42 4.9 W 20 28 11 15 - - 0.0
08/07:30am 10.2 4.5 -0.9 46 4.4 WSW 19 28 10 15 - - 0.0
08/07:00am 9.1 3.7 -1.0 49 3.9 WSW 17 24 9 13 - - 0.0
08/06:30am 7.8 2.5 -0.9 54 3.4 WSW 17 20 9 11 - - 0.0
08/06:00am 8.1 2.7 -1.4 51 3.6 WSW 17 22 9 12 - - 0.0
08/05:30am 8.8 3.8 -1.0 50 3.8 W 15 22 8 12 - - 0.0
08/05:00am 9.5 3.1 -1.5 46 4.3 W 22 30 12 16 - - 0.0
08/04:30am 9.7 3.4 -1.1 47 4.2 W 22 32 12 17 - - 0.0
08/04:00am 10.0 3.3 -0.8 47 4.3 W 24 32 13 17 - - 0.0
08/03:30am 10.4 4.7 -0.4 47 4.3 W 19 28 10 15 - - 0.0
08/03:00am 11.1 4.9 -0.4 45 4.7 W 22 30 12 16 - - 0.0
08/02:30am 11.3 5.6 0.4 47 4.5 W 20 30 11 16 - - 0.0
08/02:00am 11.6 5.6 1.3 49 4.4 W 22 30 12 16 - - 0.0
08/01:30am 12.3 7.7 1.6 48 4.6 W 15 22 8 12 - - 0.0
08/01:00am 12.7 8.6 2.0 48 4.6 W 13 19 7 10 - - 0.0
08/12:30am 13.2 8.8 2.7 49 4.6 WSW 15 22 8 12 - - 0.0
08/12:00am 13.8 9.9 3.6 50 4.6 WSW 13 20 7 11 - - 0.0
 
Date/Time
EST
Temp
°C
App
Temp
°C
Dew
Point
°C
Rel
Hum
%
Delta-T
°C
Wind Press
QNH
hPa
Press
MSL
hPa
Rain since
9am
mm
Dir  Spd
km/h
Gust
km/h
Spd
kts
Gust
kts
07/11:30pm 14.9 9.3 3.7 47 5.1 WSW 22 33 12 18 - - 0.0
07/11:00pm 15.2 10.4 5.4 52 4.7 WSW 20 26 11 14 - - 0.0
07/10:30pm 16.0 10.9 6.2 52 4.8 WSW 22 37 12 20 - - 0.0
07/10:00pm 16.9 11.4 6.1 49 5.3 WSW 24 37 13 20 - - 0.0
07/09:30pm 17.3 12.5 5.6 46 5.7 WSW 20 30 11 16 - - 0.0
07/09:00pm 17.4 12.8 5.4 45 5.8 WSW 19 32 10 17 - - 0.0
07/08:30pm 16.7 13.8 4.7 45 5.7 WSW 9 17 5 9 - - 0.0
07/08:00pm 17.4 13.7 4.4 42 6.2 WSW 13 19 7 10 - - 0.0
07/07:30pm 18.4 14.0 4.9 41 6.5 WSW 17 22 9 12 - - 0.0
07/07:00pm 17.5 13.9 5.1 44 6.0 WSW 13 19 7 10 - - 0.0
07/06:30pm 19.3 15.7 5.0 39 7.0 WSW 13 22 7 12 - - 0.0
07/06:00pm 20.3 15.5 4.8 36 7.6 WSW 19 30 10 16 - - 0.0
07/05:30pm 21.4 15.6 4.5 33 8.3 WSW 24 39 13 21 - - 0.0
07/05:00pm 21.8 17.1 5.3 34 8.2 W 19 28 10 15 - - 0.0
07/04:30pm 22.3 16.2 4.8 32 8.7 WSW 26 35 14 19 - - 0.0
07/04:00pm 23.1 16.6 4.6 30 9.2 WSW 28 39 15 21 - - 0.0
07/03:30pm 24.6 17.5 5.4 29 9.8 WSW 32 43 17 23 - - 0.0
07/03:00pm 24.5 19.4 5.8 30 9.6 W 22 32 12 17 - - 0.0
07/02:30pm 24.8 18.7 6.5 31 9.5 WSW 28 39 15 21 - - 0.0
07/02:00pm 24.6 17.6 5.9 30 9.6 WSW 32 44 17 24 - - 0.0
07/01:30pm 24.8 20.0 8.7 36 8.7 WSW 24 35 13 19 - - 0.0
07/01:00pm 24.3 18.3 8.7 37 8.4 WSW 30 39 16 21 - - 0.0
07/12:30pm 25.4 20.6 8.8 35 9.0 WSW 24 35 13 19 - - 0.0
07/12:00pm 24.1 19.7 8.9 38 8.2 WSW 22 32 12 17 - - 0.0
07/11:30am 23.6 19.7 9.6 41 7.6 W 20 30 11 16 - - 0.0
07/11:00am 24.6 20.8 11.2 43 7.6 WSW 22 32 12 17 - - 0.0
07/10:30am 24.6 21.6 10.8 42 7.7 WSW 17 24 9 13 - - 0.0
07/10:00am 23.4 21.7 12.4 50 6.3 WSW 13 20 7 11 - - 0.0
07/09:30am 21.3 20.3 13.5 61 4.5 W 11 17 6 9 - - 0.0
07/09:00am 21.1 20.3 15.0 68 3.6 W 13 17 7 9 - - 0.0
07/08:30am 20.1 19.1 15.5 75 2.7 W 15 20 8 11 - - 0.0
07/08:00am 19.8 20.5 17.0 84 1.7 WSW 9 17 5 9 - - 0.0
07/07:30am 18.5 19.9 17.7 95 0.5 W 7 9 4 5 - - 0.0
07/07:00am 18.3 20.9 17.5 95 0.5 CALM 0 0 0 0 - - 0.0
07/06:30am 18.6 21.3 17.8 95 0.5 CALM 0 0 0 0 - - 0.0
07/06:00am 18.5 21.0 17.3 93 0.7 CALM 0 0 0 0 - - 0.0
07/05:30am 18.9 20.9 17.9 94 0.6 WSW 4 7 2 4 - - 0.0
07/05:00am 18.8 20.5 18.0 95 0.5 W 6 7 3 4 - - 0.0
07/04:30am 18.6 20.6 17.9 96 0.4 W 4 9 2 5 - - 0.0
07/04:00am 18.5 20.8 17.7 95 0.5 WNW 2 6 1 3 - - 0.0
07/03:30am 18.3 20.9 17.5 95 0.5 CALM 0 0 0 0 - - 0.0
07/03:00am 18.6 20.6 17.8 95 0.5 W 4 6 2 3 - - 0.0
07/02:30am 18.5 21.1 17.5 94 0.6 CALM 0 0 0 0 - - 0.0
07/02:00am 18.7 20.2 17.7 94 0.6 WSW 6 7 3 4 - - 0.0
07/01:30am 19.0 21.7 17.8 93 0.7 CALM 0 0 0 0 - - 0.0
07/01:00am 19.0 21.6 17.5 91 0.9 CALM 0 0 0 0 - - 0.0
07/12:30am 19.1 21.5 16.9 87 1.3 CALM 0 0 0 0 - - 0.0
07/12:00am 19.5 22.0 17.3 87 1.3 CALM 0 2 0 1 - - 0.0
 
Date/Time
EST
Temp
°C
App
Temp
°C
Dew
Point
°C
Rel
Hum
%
Delta-T
°C
Wind Press
QNH
hPa
Press
MSL
hPa
Rain since
9am
mm
Dir  Spd
km/h
Gust
km/h
Spd
kts
Gust
kts
06/11:30pm 19.9 22.3 16.9 83 1.8 CALM 0 0 0 0 - - 0.0
06/11:00pm 20.1 22.5 16.9 82 1.9 CALM 0 0 0 0 - - 0.0
06/10:30pm 19.9 22.3 16.9 83 1.8 CALM 0 0 0 0 - - 0.0
06/10:00pm 20.2 21.8 16.8 81 2.1 ESE 4 7 2 4 - - 0.0
06/09:30pm 20.7 23.1 17.1 80 2.2 CALM 0 2 0 1 - - 0.0

Other formats

Comma delimited format used in spreadsheet applications
http://www.bom.gov.au/fwo/IDQ60801/IDQ60801.94562.axf

JavaScript Object Notation format (JSON) in row-major order
http://www.bom.gov.au/fwo/IDQ60801/IDQ60801.94562.json

Data quality

Most of these data are generated automatically and are frequently updated. Quality checks on data are not normally performed. It is possible for incorrect values to appear. Refer to information at About Latest Weather Observations and please check the disclaimer before using these data.